EZY323A EGPH-EGAA
Flight info
| Callsign | EZY323A |
|---|---|
| Flight time | 0h 35m |
| Altitude | 22000 |
| Route | GOSAM P600 BLACA DCT BELZU |
| Aircraft | A319/M-SDE3FGHIRWY/LB1 |
Departure
| Time | 2026-04-21 12:31 |
|---|---|
| Airport | Edinburgh Airport (EGPH) |
Arrival
| Time | 2026-04-21 13:07 |
|---|---|
| Airport | Belfast International Airport (EGAA) |
| Time | Latitude | Longitude | Altitude | Speed | Heading |
|---|---|---|---|---|---|
| 2026-04-21 12:01 | 55.94747 | -3.35495 | 107 ft | 0 kts | 208° |
| 2026-04-21 12:18 | 55.94764 | -3.35478 | 107 ft | 4 kts | 213° |
| 2026-04-21 12:18 | 55.94785 | -3.35449 | 107 ft | 4 kts | 232° |
| 2026-04-21 12:18 | 55.94795 | -3.35410 | 105 ft | 3 kts | 294° |
| 2026-04-21 12:19 | 55.94791 | -3.35397 | 107 ft | 0 kts | 298° |
| 2026-04-21 12:23 | 55.94791 | -3.35398 | 107 ft | 0 kts | 298° |
| 2026-04-21 12:23 | 55.94804 | -3.35440 | 106 ft | 7 kts | 298° |
| 2026-04-21 12:23 | 55.94840 | -3.35555 | 107 ft | 14 kts | 298° |
| 2026-04-21 12:23 | 55.94891 | -3.35720 | 106 ft | 16 kts | 298° |
| 2026-04-21 12:24 | 55.94956 | -3.35857 | 107 ft | 15 kts | 345° |
| 2026-04-21 12:24 | 55.95047 | -3.35857 | 107 ft | 13 kts | 321° |
| 2026-04-21 12:24 | 55.95094 | -3.36006 | 107 ft | 15 kts | 292° |
| 2026-04-21 12:24 | 55.95129 | -3.36185 | 106 ft | 16 kts | 288° |
| 2026-04-21 12:25 | 55.95111 | -3.36342 | 107 ft | 14 kts | 240° |
| 2026-04-21 12:25 | 55.95061 | -3.36501 | 106 ft | 15 kts | 239° |
| 2026-04-21 12:25 | 55.95004 | -3.36671 | 107 ft | 17 kts | 239° |
| 2026-04-21 12:25 | 55.94942 | -3.36852 | 107 ft | 18 kts | 239° |
| 2026-04-21 12:26 | 55.94877 | -3.37043 | 107 ft | 19 kts | 239° |
| 2026-04-21 12:26 | 55.94809 | -3.37245 | 107 ft | 20 kts | 238° |
| 2026-04-21 12:26 | 55.94736 | -3.37458 | 107 ft | 21 kts | 239° |
| 2026-04-21 12:26 | 55.94660 | -3.37682 | 106 ft | 21 kts | 239° |
| 2026-04-21 12:27 | 55.94581 | -3.37915 | 107 ft | 22 kts | 239° |
| 2026-04-21 12:27 | 55.94501 | -3.38156 | 106 ft | 23 kts | 239° |
| 2026-04-21 12:27 | 55.94416 | -3.38404 | 106 ft | 24 kts | 238° |
| 2026-04-21 12:27 | 55.94345 | -3.38611 | 107 ft | 19 kts | 239° |
| 2026-04-21 12:28 | 55.94290 | -3.38774 | 107 ft | 7 kts | 238° |
| 2026-04-21 12:28 | 55.94288 | -3.38863 | 107 ft | 7 kts | 310° |
| 2026-04-21 12:28 | 55.94313 | -3.38893 | 107 ft | 0 kts | 329° |
| 2026-04-21 12:29 | 55.94346 | -3.38928 | 108 ft | 9 kts | 329° |
| 2026-04-21 12:30 | 55.94418 | -3.38947 | 108 ft | 13 kts | 38° |
| 2026-04-21 12:30 | 55.94441 | -3.38896 | 109 ft | 0 kts | 57° |
| 2026-04-21 12:30 | 55.94450 | -3.38870 | 108 ft | 12 kts | 58° |
| 2026-04-21 12:31 | 55.94631 | -3.38334 | 107 ft | 91 kts | 59° |
| 2026-04-21 12:31 | 55.95070 | -3.37036 | 266 ft | 139 kts | 59° |
| 2026-04-21 12:31 | 55.95555 | -3.35578 | 1044 ft | 140 kts | 61° |
| 2026-04-21 12:31 | 55.96121 | -3.34090 | 1798 ft | 154 kts | 49° |
| 2026-04-21 12:32 | 55.96958 | -3.32734 | 2320 ft | 177 kts | 44° |
| 2026-04-21 12:32 | 55.97941 | -3.31161 | 2893 ft | 197 kts | 45° |
| 2026-04-21 12:32 | 55.99006 | -3.29446 | 3484 ft | 221 kts | 45° |
| 2026-04-21 12:32 | 56.00400 | -3.27954 | 4223 ft | 250 kts | 20° |
| 2026-04-21 12:33 | 56.02186 | -3.27973 | 5272 ft | 269 kts | 347° |
| 2026-04-21 12:33 | 56.03789 | -3.29800 | 6305 ft | 285 kts | 312° |
| 2026-04-21 12:33 | 56.04629 | -3.33042 | 7362 ft | 294 kts | 277° |
| 2026-04-21 12:33 | 56.04386 | -3.36625 | 8384 ft | 294 kts | 244° |
| 2026-04-21 12:34 | 56.03347 | -3.39761 | 9463 ft | 293 kts | 230° |
| 2026-04-21 12:34 | 56.02230 | -3.42842 | 10554 ft | 300 kts | 239° |
| 2026-04-21 12:34 | 56.01572 | -3.46539 | 11084 ft | 328 kts | 264° |
| 2026-04-21 12:34 | 56.01647 | -3.50762 | 11476 ft | 352 kts | 266° |
| 2026-04-21 12:35 | 56.01530 | -3.55196 | 12098 ft | 366 kts | 267° |
| 2026-04-21 12:35 | 56.01258 | -3.59746 | 12856 ft | 372 kts | 256° |
| 2026-04-21 12:35 | 56.00497 | -3.64155 | 13781 ft | 373 kts | 249° |
| 2026-04-21 12:35 | 55.99648 | -3.68561 | 14633 ft | 377 kts | 248° |
| 2026-04-21 12:36 | 55.98766 | -3.73085 | 15407 ft | 382 kts | 248° |
| 2026-04-21 12:36 | 55.98049 | -3.76753 | 16032 ft | 386 kts | 248° |
| 2026-04-21 12:36 | 55.97372 | -3.80200 | 16605 ft | 389 kts | 248° |
| 2026-04-21 12:36 | 55.96560 | -3.84327 | 17291 ft | 394 kts | 248° |
| 2026-04-21 12:37 | 55.95644 | -3.88957 | 18038 ft | 398 kts | 248° |
| 2026-04-21 12:37 | 55.94719 | -3.93633 | 18783 ft | 403 kts | 248° |
| 2026-04-21 12:37 | 55.93706 | -3.98314 | 19428 ft | 405 kts | 241° |
| 2026-04-21 12:37 | 55.92367 | -4.02183 | 20018 ft | 405 kts | 229° |
| 2026-04-21 12:38 | 55.90358 | -4.05898 | 20706 ft | 403 kts | 215° |
| 2026-04-21 12:38 | 55.88070 | -4.08801 | 21384 ft | 404 kts | 210° |
| 2026-04-21 12:38 | 55.85735 | -4.11644 | 22038 ft | 408 kts | 210° |
| 2026-04-21 12:38 | 55.83759 | -4.14053 | 22407 ft | 411 kts | 210° |
| 2026-04-21 12:39 | 55.82201 | -4.15953 | 22508 ft | 411 kts | 210° |
| 2026-04-21 12:39 | 55.79755 | -4.18935 | 22550 ft | 426 kts | 210° |
| 2026-04-21 12:39 | 55.77329 | -4.21900 | 22542 ft | 431 kts | 211° |
| 2026-04-21 12:39 | 55.74839 | -4.24984 | 22544 ft | 432 kts | 211° |
| 2026-04-21 12:40 | 55.72371 | -4.28067 | 22539 ft | 433 kts | 211° |
| 2026-04-21 12:40 | 55.69914 | -4.31143 | 22541 ft | 432 kts | 211° |
| 2026-04-21 12:40 | 55.67459 | -4.34207 | 22542 ft | 432 kts | 211° |
| 2026-04-21 12:40 | 55.64993 | -4.37274 | 22524 ft | 432 kts | 211° |
| 2026-04-21 12:41 | 55.62530 | -4.40320 | 22523 ft | 432 kts | 211° |
| 2026-04-21 12:41 | 55.60073 | -4.43351 | 22520 ft | 431 kts | 211° |
| 2026-04-21 12:41 | 55.57615 | -4.46374 | 22518 ft | 431 kts | 210° |
| 2026-04-21 12:41 | 55.55149 | -4.49394 | 22522 ft | 431 kts | 210° |
| 2026-04-21 12:42 | 55.52683 | -4.52414 | 22522 ft | 431 kts | 210° |
| 2026-04-21 12:42 | 55.50225 | -4.55421 | 22521 ft | 430 kts | 210° |
| 2026-04-21 12:42 | 55.47732 | -4.58465 | 22439 ft | 429 kts | 210° |
| 2026-04-21 12:42 | 55.45282 | -4.61456 | 22086 ft | 423 kts | 210° |
| 2026-04-21 12:43 | 55.42880 | -4.64391 | 21399 ft | 418 kts | 210° |
| 2026-04-21 12:43 | 55.40531 | -4.67260 | 20774 ft | 413 kts | 211° |
| 2026-04-21 12:43 | 55.38151 | -4.70159 | 20161 ft | 409 kts | 210° |
| 2026-04-21 12:43 | 55.35821 | -4.72982 | 19575 ft | 405 kts | 210° |
| 2026-04-21 12:44 | 55.33624 | -4.75634 | 19045 ft | 402 kts | 210° |
| 2026-04-21 12:44 | 55.31301 | -4.78351 | 18457 ft | 398 kts | 206° |
| 2026-04-21 12:44 | 55.28901 | -4.80535 | 17927 ft | 391 kts | 202° |
| 2026-04-21 12:44 | 55.26442 | -4.82692 | 17397 ft | 388 kts | 202° |
| 2026-04-21 12:45 | 55.24052 | -4.84796 | 16858 ft | 384 kts | 203° |
| 2026-04-21 12:45 | 55.21702 | -4.86865 | 16323 ft | 379 kts | 203° |
| 2026-04-21 12:45 | 55.19333 | -4.88948 | 15761 ft | 375 kts | 203° |
| 2026-04-21 12:45 | 55.17039 | -4.90957 | 15213 ft | 371 kts | 203° |
| 2026-04-21 12:46 | 55.14711 | -4.92988 | 14625 ft | 367 kts | 203° |
| 2026-04-21 12:46 | 55.12459 | -4.94952 | 14023 ft | 365 kts | 203° |
| 2026-04-21 12:46 | 55.10196 | -4.96930 | 13414 ft | 361 kts | 203° |
| 2026-04-21 12:46 | 55.07926 | -4.98918 | 12793 ft | 357 kts | 203° |
| 2026-04-21 12:47 | 55.05714 | -5.00846 | 12179 ft | 353 kts | 202° |
| 2026-04-21 12:47 | 55.03525 | -5.02745 | 11563 ft | 349 kts | 202° |
| 2026-04-21 12:47 | 55.01408 | -5.04584 | 11282 ft | 334 kts | 202° |
| 2026-04-21 12:47 | 54.99417 | -5.06325 | 11143 ft | 308 kts | 202° |
| 2026-04-21 12:48 | 54.97560 | -5.07947 | 10863 ft | 292 kts | 201° |
| 2026-04-21 12:48 | 54.95757 | -5.09508 | 10587 ft | 286 kts | 201° |
| 2026-04-21 12:48 | 54.93980 | -5.11037 | 10473 ft | 285 kts | 201° |
| 2026-04-21 12:48 | 54.92202 | -5.12563 | 10486 ft | 285 kts | 201° |
| 2026-04-21 12:49 | 54.90434 | -5.14090 | 10271 ft | 283 kts | 203° |
| 2026-04-21 12:49 | 54.88813 | -5.16083 | 9834 ft | 288 kts | 219° |
| 2026-04-21 12:49 | 54.87535 | -5.18774 | 9412 ft | 292 kts | 234° |
| 2026-04-21 12:49 | 54.86594 | -5.21918 | 8991 ft | 293 kts | 240° |
| 2026-04-21 12:50 | 54.85690 | -5.25073 | 8569 ft | 291 kts | 240° |
| 2026-04-21 12:50 | 54.84787 | -5.28202 | 8159 ft | 290 kts | 240° |
| 2026-04-21 12:50 | 54.83879 | -5.31344 | 7749 ft | 288 kts | 240° |
| 2026-04-21 12:50 | 54.82986 | -5.34436 | 7326 ft | 286 kts | 240° |
| 2026-04-21 12:51 | 54.82094 | -5.37515 | 6910 ft | 285 kts | 240° |
| 2026-04-21 12:51 | 54.81202 | -5.40578 | 6466 ft | 283 kts | 240° |
| 2026-04-21 12:51 | 54.80316 | -5.43614 | 5995 ft | 282 kts | 240° |
| 2026-04-21 12:51 | 54.79440 | -5.46617 | 5536 ft | 281 kts | 241° |
| 2026-04-21 12:52 | 54.78562 | -5.49631 | 5102 ft | 280 kts | 241° |
| 2026-04-21 12:52 | 54.77686 | -5.52636 | 5013 ft | 280 kts | 240° |
| 2026-04-21 12:52 | 54.76803 | -5.55654 | 5024 ft | 281 kts | 240° |
| 2026-04-21 12:52 | 54.75916 | -5.58680 | 5021 ft | 281 kts | 240° |
| 2026-04-21 12:53 | 54.75031 | -5.61698 | 5027 ft | 281 kts | 240° |
| 2026-04-21 12:53 | 54.74193 | -5.64557 | 5020 ft | 281 kts | 240° |
| 2026-04-21 12:53 | 54.73305 | -5.67581 | 5008 ft | 282 kts | 240° |
| 2026-04-21 12:53 | 54.72672 | -5.69730 | 5015 ft | 282 kts | 240° |
| 2026-04-21 12:54 | 54.71782 | -5.72751 | 5019 ft | 282 kts | 240° |
| 2026-04-21 12:54 | 54.70891 | -5.75778 | 5008 ft | 282 kts | 240° |
| 2026-04-21 12:54 | 54.70001 | -5.78798 | 4638 ft | 280 kts | 240° |
| 2026-04-21 12:54 | 54.69119 | -5.81789 | 4152 ft | 279 kts | 240° |
| 2026-04-21 12:55 | 54.68257 | -5.84703 | 3992 ft | 278 kts | 240° |
| 2026-04-21 12:55 | 54.67355 | -5.87740 | 4003 ft | 279 kts | 240° |
| 2026-04-21 12:55 | 54.66486 | -5.90667 | 4005 ft | 265 kts | 240° |
| 2026-04-21 12:55 | 54.65674 | -5.93416 | 4014 ft | 251 kts | 239° |
| 2026-04-21 12:56 | 54.64880 | -5.96092 | 3999 ft | 249 kts | 239° |
| 2026-04-21 12:56 | 54.64087 | -5.98755 | 4004 ft | 250 kts | 239° |
| 2026-04-21 12:56 | 54.63293 | -6.01427 | 4013 ft | 250 kts | 239° |
| 2026-04-21 12:56 | 54.62498 | -6.04095 | 4014 ft | 249 kts | 239° |
| 2026-04-21 12:57 | 54.61702 | -6.06763 | 4012 ft | 251 kts | 239° |
| 2026-04-21 12:57 | 54.60904 | -6.09429 | 4015 ft | 250 kts | 240° |
| 2026-04-21 12:57 | 54.60105 | -6.12095 | 4011 ft | 250 kts | 239° |
| 2026-04-21 12:57 | 54.59318 | -6.14713 | 4013 ft | 249 kts | 239° |
| 2026-04-21 12:58 | 54.58519 | -6.17372 | 4011 ft | 249 kts | 239° |
| 2026-04-21 12:58 | 54.57724 | -6.20015 | 4007 ft | 249 kts | 240° |
| 2026-04-21 12:58 | 54.56931 | -6.22664 | 4014 ft | 248 kts | 239° |
| 2026-04-21 12:58 | 54.56142 | -6.25294 | 4014 ft | 248 kts | 240° |
| 2026-04-21 12:59 | 54.55342 | -6.27944 | 4015 ft | 249 kts | 239° |
| 2026-04-21 12:59 | 54.54543 | -6.30586 | 4008 ft | 247 kts | 239° |
| 2026-04-21 12:59 | 54.53753 | -6.33198 | 4011 ft | 244 kts | 240° |
| 2026-04-21 12:59 | 54.52993 | -6.35710 | 4013 ft | 228 kts | 239° |
| 2026-04-21 13:00 | 54.52275 | -6.38085 | 4009 ft | 221 kts | 239° |
| 2026-04-21 13:00 | 54.51748 | -6.40544 | 4006 ft | 216 kts | 263° |
| 2026-04-21 13:00 | 54.51932 | -6.43027 | 4008 ft | 208 kts | 295° |
| 2026-04-21 13:00 | 54.52735 | -6.45039 | 3832 ft | 201 kts | 324° |
| 2026-04-21 13:01 | 54.53912 | -6.46203 | 3639 ft | 193 kts | 342° |
| 2026-04-21 13:01 | 54.55136 | -6.47169 | 3445 ft | 193 kts | 341° |
| 2026-04-21 13:01 | 54.56341 | -6.48138 | 3267 ft | 192 kts | 342° |
| 2026-04-21 13:01 | 54.57582 | -6.48454 | 3125 ft | 173 kts | 17° |
| 2026-04-21 13:02 | 54.58576 | -6.47560 | 2955 ft | 155 kts | 50° |
| 2026-04-21 13:02 | 54.59110 | -6.46068 | 2839 ft | 142 kts | 69° |
| 2026-04-21 13:02 | 54.59899 | -6.43174 | 2601 ft | 125 kts | 69° |
| 2026-04-21 13:03 | 54.60261 | -6.41853 | 2503 ft | 119 kts | 70° |
| 2026-04-21 13:03 | 54.60606 | -6.40590 | 2352 ft | 117 kts | 70° |
| 2026-04-21 13:03 | 54.60949 | -6.39334 | 2199 ft | 115 kts | 69° |
| 2026-04-21 13:03 | 54.61290 | -6.38079 | 2037 ft | 116 kts | 69° |
| 2026-04-21 13:04 | 54.61631 | -6.36822 | 1882 ft | 116 kts | 69° |
| 2026-04-21 13:04 | 54.61972 | -6.35559 | 1725 ft | 116 kts | 69° |
| 2026-04-21 13:04 | 54.62313 | -6.34300 | 1569 ft | 116 kts | 70° |
| 2026-04-21 13:04 | 54.62653 | -6.33045 | 1411 ft | 115 kts | 69° |
| 2026-04-21 13:05 | 54.62991 | -6.31800 | 1255 ft | 114 kts | 70° |
| 2026-04-21 13:05 | 54.63329 | -6.30549 | 1099 ft | 115 kts | 71° |
| 2026-04-21 13:05 | 54.63668 | -6.29296 | 955 ft | 116 kts | 70° |
| 2026-04-21 13:05 | 54.64012 | -6.28036 | 799 ft | 116 kts | 68° |
| 2026-04-21 13:06 | 54.64348 | -6.26771 | 678 ft | 117 kts | 69° |
| 2026-04-21 13:06 | 54.64690 | -6.25504 | 569 ft | 116 kts | 68° |
| 2026-04-21 13:06 | 54.65030 | -6.24240 | 418 ft | 116 kts | 68° |
| 2026-04-21 13:06 | 54.65373 | -6.22971 | 281 ft | 111 kts | 68° |
| 2026-04-21 13:07 | 54.65632 | -6.21985 | 272 ft | 71 kts | 65° |
| 2026-04-21 13:07 | 54.65764 | -6.21519 | 273 ft | 22 kts | 61° |
| 2026-04-21 13:07 | 54.65816 | -6.21364 | 275 ft | 14 kts | 44° |
| 2026-04-21 13:07 | 54.65900 | -6.21353 | 272 ft | 11 kts | 341° |
| 2026-04-21 13:08 | 54.65945 | -6.21383 | 272 ft | 8 kts | 339° |
| 2026-04-21 13:08 | 54.65985 | -6.21366 | 276 ft | 5 kts | 40° |
| 2026-04-21 13:08 | 54.66009 | -6.21304 | 273 ft | 7 kts | 63° |
| 2026-04-21 13:08 | 54.66031 | -6.21219 | 275 ft | 9 kts | 55° |
| 2026-04-21 13:09 | 54.66077 | -6.21221 | 272 ft | 7 kts | 333° |
| 2026-04-21 13:09 | 54.66116 | -6.21256 | 275 ft | 5 kts | 329° |
| 2026-04-21 13:09 | 54.66124 | -6.21289 | 272 ft | 1 kts | 264° |
| 2026-04-21 13:09 | 54.66121 | -6.21309 | 272 ft | 2 kts | 251° |
| 2026-04-21 13:10 | 54.66114 | -6.21338 | 272 ft | 2 kts | 246° |
| 2026-04-21 13:10 | 54.66109 | -6.21354 | 275 ft | 1 kts | 245° |
| 2026-04-21 13:10 | 54.66108 | -6.21359 | 274 ft | 0 kts | 245° |